createdAt,value
2023-02-23T00:02:05.773Z,8.95
2023-02-23T00:04:33.814Z,8.73
2023-02-23T00:07:01.196Z,8.93
2023-02-23T00:09:35.213Z,8.02
2023-02-23T00:12:08.048Z,8.10
2023-02-23T00:14:40.371Z,7.75
2023-02-23T00:17:14.524Z,7.60
2023-02-23T00:19:43.579Z,8.15
2023-02-23T00:22:11.844Z,9.45
2023-02-23T00:24:40.563Z,9.55
2023-02-23T00:27:07.903Z,9.20
2023-02-23T00:29:39.617Z,9.88
2023-02-23T00:32:07.048Z,8.10
2023-02-23T00:34:36.630Z,9.77
2023-02-23T00:37:04.082Z,6.97
2023-02-23T00:39:31.421Z,7.05
2023-02-23T00:42:03.470Z,7.50
2023-02-23T00:44:33.672Z,8.20
2023-02-23T00:47:03.712Z,9.13
2023-02-23T00:49:30.652Z,9.30
2023-02-23T00:51:57.609Z,8.70
2023-02-23T00:54:25.266Z,7.28
2023-02-23T00:56:52.650Z,9.85
2023-02-23T00:59:19.825Z,8.45
2023-02-23T01:01:47.075Z,8.68
2023-02-23T01:04:14.665Z,8.30
2023-02-23T01:06:43.061Z,8.05
2023-02-23T01:09:16.073Z,8.90
2023-02-23T01:11:46.626Z,9.18
2023-02-23T01:14:15.013Z,9.10
2023-02-23T01:16:42.008Z,9.40
2023-02-23T01:19:10.819Z,9.63
2023-02-23T01:21:42.192Z,9.45
2023-02-23T01:24:11.816Z,9.77
2023-02-23T01:26:45.029Z,9.70
2023-02-23T01:29:16.400Z,8.18
2023-02-23T01:31:47.371Z,9.60
2023-02-23T01:34:19.139Z,10.38
2023-02-23T01:36:46.477Z,13.80
2023-02-23T01:39:18.374Z,12.45
2023-02-23T01:41:45.827Z,13.45
2023-02-23T01:44:12.747Z,11.88
2023-02-23T01:46:46.152Z,10.25
2023-02-23T01:49:25.634Z,9.95
2023-02-23T01:52:00.519Z,9.52
2023-02-23T01:54:36.288Z,8.55
2023-02-23T01:57:06.522Z,9.38
2023-02-23T01:59:44.669Z,8.23
2023-02-23T02:02:13.311Z,9.25
2023-02-23T02:04:45.653Z,8.18
2023-02-23T02:07:17.670Z,9.23
2023-02-23T02:10:10.233Z,8.23
2023-02-23T02:12:45.731Z,8.52
2023-02-23T02:15:19.947Z,9.00
2023-02-23T02:18:11.878Z,9.25
2023-02-23T02:21:04.619Z,9.07
2023-02-23T02:24:13.156Z,9.23
2023-02-23T02:27:08.012Z,10.07
2023-02-23T02:30:01.803Z,9.10
2023-02-23T02:33:00.979Z,9.55
2023-02-23T02:35:51.603Z,9.55
2023-02-23T02:39:07.074Z,7.88
2023-02-23T02:42:21.569Z,10.45
2023-02-23T02:45:45.863Z,9.88
2023-02-23T02:48:42.038Z,8.98
2023-02-23T02:51:28.588Z,9.13
2023-02-23T02:54:06.731Z,9.27
2023-02-23T02:56:40.369Z,8.93
2023-02-23T02:59:34.246Z,9.85
2023-02-23T03:02:20.859Z,9.68
2023-02-23T03:05:06.853Z,9.15
2023-02-23T03:08:15.080Z,9.00
2023-02-23T03:11:20.416Z,9.48
2023-02-23T03:14:48.318Z,9.50
2023-02-23T03:18:03.005Z,9.90
2023-02-23T03:20:51.404Z,8.93
2023-02-23T03:24:01.270Z,8.63
2023-02-23T03:27:11.807Z,9.85
2023-02-23T03:30:00.329Z,8.73
2023-02-23T03:32:53.546Z,9.18
2023-02-23T03:36:10.747Z,8.90
2023-02-23T03:39:01.661Z,10.15
2023-02-23T03:41:50.088Z,10.02
2023-02-23T03:44:51.211Z,14.63
2023-02-23T03:47:42.116Z,14.73
2023-02-23T03:50:40.024Z,14.40
2023-02-23T03:53:28.937Z,12.32
2023-02-23T03:56:17.774Z,13.45
2023-02-23T03:59:10.607Z,12.55
2023-02-23T04:01:58.304Z,12.38
2023-02-23T04:04:46.390Z,12.70
2023-02-23T04:07:37.476Z,12.77
2023-02-23T04:10:24.846Z,12.00
2023-02-23T04:13:16.421Z,11.98
2023-02-23T04:15:50.969Z,13.10
2023-02-23T04:18:28.099Z,11.88
2023-02-23T04:20:57.512Z,11.82
2023-02-23T04:23:25.481Z,11.73
2023-02-23T04:25:53.715Z,11.75
2023-02-23T04:28:22.668Z,12.75
2023-02-23T04:30:52.449Z,12.20
2023-02-23T04:33:22.004Z,11.45
2023-02-23T04:35:49.463Z,11.40
2023-02-23T04:38:16.911Z,11.88
2023-02-23T04:40:44.492Z,11.82
2023-02-23T04:43:13.227Z,11.82
2023-02-23T04:45:40.915Z,12.43
2023-02-23T04:48:08.607Z,11.95
2023-02-23T04:50:35.956Z,11.90
2023-02-23T04:53:03.265Z,11.82
2023-02-23T04:55:30.683Z,12.85
2023-02-23T04:58:00.206Z,11.45
2023-02-23T05:00:29.321Z,13.98
2023-02-23T05:02:57.559Z,11.35
2023-02-23T05:05:25.049Z,12.38
2023-02-23T05:07:52.978Z,11.50
2023-02-23T05:10:20.333Z,12.52
2023-02-23T05:12:47.723Z,9.98
2023-02-23T05:15:15.227Z,10.07
2023-02-23T05:17:42.742Z,11.63
2023-02-23T05:20:13.550Z,11.65
2023-02-23T05:22:40.630Z,10.63
2023-02-23T05:25:09.504Z,13.48
2023-02-23T05:27:37.129Z,12.00
2023-02-23T05:30:07.828Z,10.32
2023-02-23T05:32:35.458Z,12.50
2023-02-23T05:35:03.202Z,12.25
2023-02-23T05:37:30.598Z,12.68
2023-02-23T05:39:57.935Z,12.18
2023-02-23T05:42:25.306Z,11.38
2023-02-23T05:44:52.678Z,11.32
2023-02-23T05:47:20.016Z,11.48
2023-02-23T05:49:47.106Z,10.60
2023-02-23T05:52:14.043Z,14.02
2023-02-23T05:54:41.326Z,12.57
2023-02-23T05:57:08.760Z,11.27
2023-02-23T05:59:36.129Z,13.52
2023-02-23T06:02:05.926Z,13.85
2023-02-23T06:04:33.603Z,13.55
2023-02-23T06:07:00.932Z,13.77
2023-02-23T06:09:28.362Z,12.30
2023-02-23T06:11:55.685Z,14.10
2023-02-23T06:14:23.014Z,13.13
2023-02-23T06:16:50.588Z,13.40
2023-02-23T06:19:18.059Z,12.75
2023-02-23T06:21:45.856Z,13.48
2023-02-23T06:24:13.444Z,13.60
2023-02-23T06:26:42.367Z,12.98
2023-02-23T06:29:11.973Z,14.27
2023-02-23T06:31:39.544Z,10.27
2023-02-23T06:34:06.970Z,16.30
2023-02-23T06:36:34.470Z,15.43
2023-02-23T06:39:02.086Z,14.88
2023-02-23T06:41:29.496Z,14.32
2023-02-23T06:43:56.851Z,14.45
2023-02-23T06:46:24.658Z,14.30
2023-02-23T06:48:55.937Z,15.38
2023-02-23T06:51:23.793Z,15.85
2023-02-23T06:53:53.313Z,14.27
2023-02-23T06:56:20.433Z,15.18
2023-02-23T06:58:48.031Z,13.88
2023-02-23T07:01:15.887Z,12.13
2023-02-23T07:03:43.432Z,14.90
2023-02-23T07:06:10.862Z,15.85
2023-02-23T07:08:38.758Z,15.02
2023-02-23T07:11:11.159Z,17.05
2023-02-23T07:13:38.551Z,17.48
2023-02-23T07:16:07.203Z,19.00
2023-02-23T07:18:34.953Z,16.80
2023-02-23T07:21:02.295Z,14.60
2023-02-23T07:23:29.669Z,13.18
2023-02-23T07:25:58.039Z,10.07
2023-02-23T07:28:27.344Z,12.02
2023-02-23T07:30:57.371Z,14.50
2023-02-23T07:33:25.290Z,14.80
2023-02-23T07:35:52.817Z,14.60
2023-02-23T07:38:20.432Z,14.25
2023-02-23T07:40:49.586Z,14.52
2023-02-23T07:43:16.940Z,12.52
2023-02-23T07:45:46.502Z,14.20
2023-02-23T07:48:13.679Z,12.07
2023-02-23T07:50:42.384Z,12.60
2023-02-23T07:53:10.077Z,11.20
2023-02-23T07:55:38.453Z,11.07
2023-02-23T07:58:06.683Z,12.05
2023-02-23T08:00:35.038Z,12.35
2023-02-23T08:03:02.423Z,11.98
2023-02-23T08:05:30.409Z,12.57
2023-02-23T08:07:59.153Z,11.90
2023-02-23T08:10:26.785Z,12.35
2023-02-23T08:12:54.271Z,11.93
2023-02-23T08:15:21.630Z,12.13
2023-02-23T08:17:49.060Z,14.50
2023-02-23T08:20:16.429Z,12.75
2023-02-23T08:22:49.650Z,12.00
2023-02-23T08:25:18.040Z,13.15
2023-02-23T08:27:45.877Z,13.70
2023-02-23T08:30:15.775Z,13.27
2023-02-23T08:32:44.620Z,11.52
2023-02-23T08:35:12.825Z,11.90
2023-02-23T08:37:41.854Z,14.43
2023-02-23T08:40:10.307Z,9.90
2023-02-23T08:42:38.248Z,13.48
2023-02-23T08:45:08.585Z,14.65
2023-02-23T08:47:36.909Z,15.48
2023-02-23T08:50:05.692Z,14.32
2023-02-23T08:52:34.105Z,15.95
2023-02-23T08:55:01.648Z,15.70
2023-02-23T08:57:29.620Z,13.75
2023-02-23T08:59:57.137Z,15.75
2023-02-23T09:02:24.936Z,16.75
2023-02-23T09:04:55.283Z,14.75
2023-02-23T09:07:23.525Z,15.98
2023-02-23T09:09:56.395Z,15.80
2023-02-23T09:12:23.820Z,18.55
2023-02-23T09:14:53.711Z,19.45
2023-02-23T09:17:22.975Z,19.13
2023-02-23T09:19:51.281Z,23.70
2023-02-23T09:22:20.861Z,23.38
2023-02-23T09:24:48.446Z,20.75
2023-02-23T09:27:18.558Z,18.52
2023-02-23T09:29:45.926Z,18.50
2023-02-23T09:32:15.676Z,19.95
2023-02-23T09:34:43.356Z,16.55
2023-02-23T09:37:10.683Z,17.13
2023-02-23T09:39:39.164Z,18.65
2023-02-23T09:42:26.538Z,17.05
2023-02-23T09:45:39.918Z,15.80
2023-02-23T09:48:23.045Z,17.08
2023-02-23T09:50:58.311Z,16.35
2023-02-23T09:53:40.998Z,19.10
2023-02-23T09:56:23.675Z,18.85
2023-02-23T09:58:51.026Z,17.73
2023-02-23T10:01:49.078Z,17.02
2023-02-23T10:04:24.213Z,14.75
2023-02-23T10:07:09.425Z,16.33
2023-02-23T10:10:07.385Z,15.98
2023-02-23T10:13:09.436Z,13.77
2023-02-23T10:16:04.361Z,14.85
2023-02-23T10:19:04.444Z,15.68
2023-02-23T10:21:40.008Z,16.23
2023-02-23T10:24:33.797Z,14.80
2023-02-23T10:27:12.572Z,14.63
2023-02-23T10:29:51.912Z,11.88
2023-02-23T10:32:43.071Z,10.55
2023-02-23T10:35:19.334Z,10.73
2023-02-23T10:37:47.682Z,11.57
2023-02-23T10:40:18.548Z,11.68
2023-02-23T10:42:45.893Z,10.75
2023-02-23T10:45:23.001Z,10.85
2023-02-23T10:48:06.234Z,10.30
2023-02-23T10:50:36.706Z,9.63
2023-02-23T10:53:18.343Z,8.10
2023-02-23T10:55:47.083Z,9.90
2023-02-23T10:58:20.569Z,8.88
2023-02-23T11:01:02.968Z,8.50
2023-02-23T11:06:04.173Z,8.68
2023-02-23T11:08:39.544Z,6.22
2023-02-23T11:11:15.928Z,5.63
2023-02-23T11:13:46.761Z,5.85
2023-02-23T11:16:25.435Z,6.72
2023-02-23T11:19:01.114Z,5.65
2023-02-23T11:21:35.477Z,6.07
2023-02-23T11:24:18.112Z,6.50
2023-02-23T11:26:47.779Z,5.93
2023-02-23T11:29:22.759Z,5.32
2023-02-23T11:31:58.440Z,4.93
2023-02-23T11:34:35.393Z,5.60
2023-02-23T11:37:27.083Z,5.50
2023-02-23T11:39:59.741Z,4.82
2023-02-23T11:42:35.612Z,5.25
2023-02-23T11:45:08.138Z,2.42
2023-02-23T11:47:41.443Z,1.80
2023-02-23T11:50:22.221Z,3.25
2023-02-23T11:53:02.028Z,1.95
2023-02-23T11:55:31.671Z,1.63
2023-02-23T11:58:37.615Z,1.73
2023-02-23T12:01:12.181Z,2.85
2023-02-23T12:03:47.830Z,2.67
2023-02-23T12:06:36.350Z,3.20
2023-02-23T12:09:28.159Z,3.33
2023-02-23T12:12:14.192Z,2.78
2023-02-23T12:14:53.945Z,2.10
2023-02-23T12:17:28.357Z,2.53
2023-02-23T12:20:16.540Z,2.70
2023-02-23T12:22:52.438Z,3.22
2023-02-23T12:25:55.998Z,2.58
2023-02-23T12:28:52.975Z,3.50
2023-02-23T12:31:40.439Z,3.50
2023-02-23T12:34:40.091Z,2.25
2023-02-23T12:37:09.927Z,2.67
2023-02-23T12:39:43.728Z,2.38
2023-02-23T12:42:23.914Z,2.58
2023-02-23T12:45:06.026Z,2.17
2023-02-23T12:47:59.345Z,2.78
2023-02-23T12:50:43.440Z,3.95
2023-02-23T12:53:37.728Z,4.05
2023-02-23T12:56:46.782Z,2.83
2023-02-23T13:00:24.021Z,3.20
2023-02-23T13:03:40.207Z,3.70
2023-02-23T13:06:36.843Z,3.35
2023-02-23T13:09:29.843Z,2.50
2023-02-23T13:12:30.181Z,2.42
2023-02-23T13:15:15.655Z,3.10
2023-02-23T13:17:51.781Z,2.65
2023-02-23T13:20:25.348Z,3.33
2023-02-23T13:23:12.754Z,2.20
2023-02-23T13:26:09.886Z,6.00
2023-02-23T13:29:07.809Z,5.30
2023-02-23T13:31:38.666Z,3.15
2023-02-23T13:34:11.905Z,4.93
2023-02-23T13:36:40.733Z,4.13
2023-02-23T13:39:45.152Z,3.67
2023-02-23T13:42:56.688Z,1.73
2023-02-23T13:45:32.384Z,1.67
2023-02-23T13:48:31.668Z,2.28
2023-02-23T13:51:30.482Z,2.20
2023-02-23T13:54:33.150Z,1.92
2023-02-23T13:57:05.726Z,1.73
2023-02-23T13:59:43.541Z,2.47
2023-02-23T14:02:35.860Z,2.10
2023-02-23T14:07:54.973Z,2.10
2023-02-23T14:10:25.783Z,2.33
2023-02-23T14:13:15.528Z,3.35
2023-02-23T14:15:53.608Z,2.10
2023-02-23T14:18:21.055Z,2.58
2023-02-23T14:21:15.980Z,2.45
2023-02-23T14:24:21.503Z,2.10
2023-02-23T14:27:41.598Z,2.13
2023-02-23T14:30:12.124Z,2.35
2023-02-23T14:32:45.634Z,2.13
2023-02-23T14:35:34.427Z,2.03
2023-02-23T14:38:10.257Z,2.08
2023-02-23T14:40:43.394Z,2.25
2023-02-23T14:43:51.380Z,1.70
2023-02-23T14:46:22.034Z,1.50
2023-02-23T14:49:10.247Z,2.30
2023-02-23T14:51:48.529Z,2.40
2023-02-23T14:54:36.166Z,2.60
2023-02-23T14:57:19.139Z,2.50
2023-02-23T15:00:02.738Z,2.50
2023-02-23T15:02:31.245Z,2.20
2023-02-23T15:04:58.650Z,2.60
2023-02-23T15:07:40.297Z,3.13
2023-02-23T15:10:17.708Z,2.72
2023-02-23T15:12:47.081Z,3.08
2023-02-23T15:15:20.473Z,2.83
2023-02-23T15:17:53.315Z,2.75
2023-02-23T15:20:28.644Z,2.63
2023-02-23T15:22:59.184Z,2.95
2023-02-23T15:25:35.044Z,3.80
2023-02-23T15:28:29.594Z,2.90
2023-02-23T15:31:01.128Z,3.58
2023-02-23T15:33:28.958Z,3.28
2023-02-23T15:36:10.102Z,3.17
2023-02-23T15:38:46.011Z,3.22
2023-02-23T15:41:37.219Z,2.45
2023-02-23T15:44:22.752Z,2.38
2023-02-23T15:47:00.317Z,2.75
2023-02-23T15:49:37.911Z,3.08
2023-02-23T15:52:15.578Z,2.97
2023-02-23T15:55:10.111Z,2.63
2023-02-23T15:58:00.068Z,2.78
2023-02-23T16:00:38.454Z,2.58
2023-02-23T16:03:07.958Z,2.50
2023-02-23T16:05:46.517Z,3.45
2023-02-23T16:08:25.263Z,3.05
2023-02-23T16:11:02.237Z,3.33
2023-02-23T16:13:29.237Z,3.38
2023-02-23T16:15:57.020Z,2.80
2023-02-23T16:18:36.029Z,3.63
2023-02-23T16:21:04.815Z,3.65
2023-02-23T16:23:41.138Z,3.38
2023-02-23T16:26:12.875Z,3.78
2023-02-23T16:28:45.915Z,4.15
2023-02-23T16:31:14.538Z,5.93
2023-02-23T16:33:52.926Z,5.15
2023-02-23T16:36:24.117Z,5.05
2023-02-23T16:39:02.932Z,5.45
2023-02-23T16:41:34.476Z,4.25
2023-02-23T16:44:07.374Z,4.78
2023-02-23T16:47:03.164Z,4.45
2023-02-23T16:49:30.585Z,4.55
2023-02-23T16:51:59.466Z,4.53
2023-02-23T16:54:27.110Z,4.22
2023-02-23T16:56:56.026Z,5.15
2023-02-23T16:59:24.149Z,4.57
2023-02-23T17:01:51.574Z,5.50
2023-02-23T17:04:20.744Z,5.43
2023-02-23T17:06:57.637Z,4.03
2023-02-23T17:09:25.363Z,5.93
2023-02-23T17:11:52.658Z,4.90
2023-02-23T17:14:28.257Z,4.13
2023-02-23T17:16:55.362Z,3.42
2023-02-23T17:19:24.657Z,3.97
2023-02-23T17:21:53.019Z,4.22
2023-02-23T17:24:24.406Z,4.22
2023-02-23T17:26:55.448Z,4.75
2023-02-23T17:29:22.621Z,4.87
2023-02-23T17:31:50.544Z,5.50
2023-02-23T17:34:17.795Z,5.78
2023-02-23T17:36:45.120Z,5.05
2023-02-23T17:39:14.314Z,5.93
2023-02-23T17:41:41.471Z,5.55
2023-02-23T17:44:09.018Z,5.85
2023-02-23T17:46:36.393Z,5.72
2023-02-23T17:49:03.763Z,6.63
2023-02-23T17:51:30.680Z,6.15
2023-02-23T17:53:57.954Z,6.28
2023-02-23T17:56:25.501Z,6.28
2023-02-23T17:58:52.949Z,6.45
2023-02-23T18:01:20.368Z,5.13
2023-02-23T18:03:47.963Z,5.43
2023-02-23T18:06:17.209Z,5.07
2023-02-23T18:08:45.245Z,5.38
2023-02-23T18:11:12.787Z,4.93
2023-02-23T18:13:40.181Z,4.60
2023-02-23T18:16:10.480Z,4.80
2023-02-23T18:18:45.043Z,4.50
2023-02-23T18:21:19.775Z,4.60
2023-02-23T18:23:47.784Z,3.97
2023-02-23T18:26:24.652Z,4.10
2023-02-23T18:28:51.902Z,4.57
2023-02-23T18:31:22.713Z,4.00
2023-02-23T18:33:52.713Z,4.75
2023-02-23T18:36:24.255Z,4.18
2023-02-23T18:38:51.764Z,5.63
2023-02-23T18:41:19.137Z,4.88
2023-02-23T18:43:46.648Z,5.70
2023-02-23T18:46:14.433Z,5.25
2023-02-23T18:48:42.157Z,4.82
2023-02-23T18:51:14.382Z,4.78
2023-02-23T18:56:12.852Z,4.72
2023-02-23T18:58:40.405Z,4.47
2023-02-23T19:01:12.874Z,3.92
2023-02-23T19:03:41.501Z,4.15
2023-02-23T19:06:12.033Z,4.10
2023-02-23T19:08:39.714Z,4.53
2023-02-23T19:11:07.244Z,3.47
2023-02-23T19:13:34.382Z,4.72
2023-02-23T19:16:06.966Z,4.60
2023-02-23T19:18:35.597Z,4.80
2023-02-23T19:21:04.102Z,3.60
2023-02-23T19:23:31.546Z,3.90
2023-02-23T19:26:02.193Z,3.70
2023-02-23T19:28:30.059Z,3.75
2023-02-23T19:31:09.655Z,4.20
2023-02-23T19:33:39.904Z,3.58
2023-02-23T19:36:13.172Z,3.38
2023-02-23T19:38:42.421Z,3.80
2023-02-23T19:41:12.767Z,4.72
2023-02-23T19:43:39.667Z,4.43
2023-02-23T19:46:09.874Z,3.95
2023-02-23T19:48:37.885Z,3.97
2023-02-23T19:51:05.766Z,4.57
2023-02-23T19:53:33.422Z,3.80
2023-02-23T19:56:11.618Z,5.30
2023-02-23T19:58:39.058Z,4.55
2023-02-23T20:01:08.874Z,5.63
2023-02-23T20:03:39.448Z,4.63
2023-02-23T20:06:07.374Z,5.63
2023-02-23T20:08:34.701Z,4.65
2023-02-23T20:11:06.599Z,5.05
2023-02-23T20:13:34.729Z,4.53
2023-02-23T20:16:11.317Z,4.25
2023-02-23T20:18:40.140Z,4.60
2023-02-23T20:21:23.308Z,4.97
2023-02-23T20:23:50.993Z,4.47
2023-02-23T20:26:31.948Z,4.43
2023-02-23T20:28:59.315Z,4.90
2023-02-23T20:31:30.579Z,4.68
2023-02-23T20:34:01.905Z,4.70
2023-02-23T20:36:28.914Z,5.18
2023-02-23T20:38:56.245Z,5.22
2023-02-23T20:41:25.516Z,5.85
2023-02-23T20:43:52.695Z,5.00
2023-02-23T20:46:20.244Z,5.10
2023-02-23T20:48:49.130Z,5.22
2023-02-23T20:51:18.969Z,4.80
2023-02-23T20:53:48.126Z,5.38
2023-02-23T20:56:18.563Z,5.88
2023-02-23T20:58:46.350Z,5.88
2023-02-23T21:01:16.821Z,5.25
2023-02-23T21:03:44.255Z,4.75
2023-02-23T21:06:11.689Z,4.90
2023-02-23T21:08:42.310Z,4.93
2023-02-23T21:11:09.353Z,4.22
2023-02-23T21:13:36.868Z,6.40
2023-02-23T21:16:03.947Z,5.30
2023-02-23T21:18:31.680Z,6.20
2023-02-23T21:21:06.929Z,6.35
2023-02-23T21:23:33.833Z,5.45
2023-02-23T21:26:09.696Z,5.53
2023-02-23T21:28:39.221Z,4.93
2023-02-23T21:31:06.674Z,5.78
2023-02-23T21:33:33.579Z,6.32
2023-02-23T21:36:00.467Z,6.85
2023-02-23T21:38:27.358Z,5.75
2023-02-23T21:40:54.245Z,5.03
2023-02-23T21:43:23.030Z,6.38
2023-02-23T21:45:49.926Z,5.20
2023-02-23T21:48:16.864Z,5.45
2023-02-23T21:50:44.576Z,4.53
2023-02-23T21:53:12.600Z,5.15
2023-02-23T21:55:42.616Z,4.47
2023-02-23T21:58:09.847Z,5.18
2023-02-23T22:00:37.032Z,4.28
2023-02-23T22:03:04.503Z,5.80
2023-02-23T22:05:35.059Z,6.93
2023-02-23T22:08:02.433Z,7.00
2023-02-23T22:10:32.049Z,6.65
2023-02-23T22:13:02.949Z,6.53
2023-02-23T22:15:30.368Z,8.13
2023-02-23T22:17:57.264Z,6.05
2023-02-23T22:20:25.448Z,6.10
2023-02-23T22:22:52.939Z,6.95
2023-02-23T22:25:20.529Z,8.40
2023-02-23T22:27:47.882Z,7.00
2023-02-23T22:30:15.618Z,8.38
2023-02-23T22:32:43.509Z,9.02
2023-02-23T22:35:11.405Z,8.65
2023-02-23T22:37:38.978Z,8.38
2023-02-23T22:40:25.150Z,8.93
2023-02-23T22:42:54.170Z,7.78
2023-02-23T22:45:21.453Z,7.25
2023-02-23T22:47:48.895Z,8.00
2023-02-23T22:50:19.193Z,6.45
2023-02-23T22:52:47.032Z,7.45
2023-02-23T22:55:14.437Z,6.55
2023-02-23T22:57:41.790Z,7.43
2023-02-23T23:00:11.745Z,8.45
2023-02-23T23:02:38.976Z,7.32
2023-02-23T23:05:07.034Z,8.73
2023-02-23T23:07:34.048Z,8.30
2023-02-23T23:10:05.701Z,8.02
2023-02-23T23:12:34.353Z,7.25
2023-02-23T23:15:02.269Z,7.75
2023-02-23T23:17:30.821Z,6.85
2023-02-23T23:20:02.919Z,7.85
2023-02-23T23:22:31.540Z,6.35
2023-02-23T23:24:58.483Z,8.05
2023-02-23T23:27:25.616Z,8.00
2023-02-23T23:29:52.513Z,8.00
2023-02-23T23:32:21.064Z,6.30
2023-02-23T23:34:49.325Z,8.02
2023-02-23T23:37:18.466Z,8.18
2023-02-23T23:39:45.996Z,7.30
2023-02-23T23:42:13.310Z,8.80
2023-02-23T23:44:40.305Z,7.78
2023-02-23T23:47:07.918Z,8.27
2023-02-23T23:49:38.006Z,9.15
2023-02-23T23:52:06.211Z,9.50
2023-02-23T23:54:39.421Z,8.57
2023-02-23T23:57:07.182Z,8.63
2023-02-23T23:59:35.787Z,8.07
